International Falls, Minnesota
Current Conditions -  °F | °C
As of 3:55 PM on Tuesday 21 Oct 2014 (Local Time) from KINL Reporting Station
Clear Clear  
Wind Chill: 43°   Ceiling: Unl
Heat Index: 49°   Visibility: 10mi
Dew Point: 35°   Wind: 15mph
Humidity: 59%   Direction: 140°SE
Pressure: 30.1"   Gusts: 21mph
Location:  48.6°N, 93.4°W
Report Text: KINL 212055Z AUTO 14013G18KT 10SM CLR 09/02 A3010 RMK AO2 SLP205 T00940017 58019
Loading
Personal Weather Stations






























Interactive Weather Map New forecast layout! Learn more

10-Day Weather Forecast

Advertisements
Track Severe Weather on mobile